sensor_id;sensor_type;location;lat;lon;timestamp;pressure;altitude;pressure_sealevel;temperature;humidity
54876;BME280;40764;48.472;8.166;2023-04-10T00:02:17;98733.13;;;5.25;77.81
54876;BME280;40764;48.472;8.166;2023-04-10T00:08:17;98735.66;;;5.32;76.92
54876;BME280;40764;48.472;8.166;2023-04-10T00:14:17;98732.78;;;5.22;77.50
54876;BME280;40764;48.472;8.166;2023-04-10T00:20:22;98734.81;;;5.32;76.68
54876;BME280;40764;48.472;8.166;2023-04-10T00:26:23;98743.63;;;5.05;77.76
54876;BME280;40764;48.472;8.166;2023-04-10T00:32:23;98742.63;;;4.78;79.42
54876;BME280;40764;48.472;8.166;2023-04-10T00:38:23;98729.25;;;4.71;79.83
54876;BME280;40764;48.472;8.166;2023-04-10T00:44:24;98717.19;;;4.79;79.45
54876;BME280;40764;48.472;8.166;2023-04-10T00:50:24;98720.47;;;4.81;79.50
54876;BME280;40764;48.472;8.166;2023-04-10T00:56:24;98721.84;;;4.83;78.91
54876;BME280;40764;48.472;8.166;2023-04-10T01:02:25;98723.81;;;4.71;79.41
54876;BME280;40764;48.472;8.166;2023-04-10T01:14:59;98727.91;;;4.57;79.96
54876;BME280;40764;48.472;8.166;2023-04-10T01:21:01;98724.00;;;4.64;79.76
54876;BME280;40764;48.472;8.166;2023-04-10T01:27:35;98711.56;;;4.35;81.07
54876;BME280;40764;48.472;8.166;2023-04-10T01:33:43;98724.63;;;4.26;81.51
54876;BME280;40764;48.472;8.166;2023-04-10T01:39:50;98721.16;;;4.43;81.06
54876;BME280;40764;48.472;8.166;2023-04-10T01:45:52;98719.94;;;4.50;80.01
54876;BME280;40764;48.472;8.166;2023-04-10T01:51:54;98711.34;;;4.70;78.84
54876;BME280;40764;48.472;8.166;2023-04-10T01:57:58;98705.91;;;4.53;79.79
54876;BME280;40764;48.472;8.166;2023-04-10T02:03:59;98703.22;;;4.25;81.24
54876;BME280;40764;48.472;8.166;2023-04-10T02:10:12;98698.13;;;4.28;82.25
54876;BME280;40764;48.472;8.166;2023-04-10T02:16:14;98699.34;;;4.49;80.34
54876;BME280;40764;48.472;8.166;2023-04-10T02:22:18;98693.63;;;4.17;81.38
54876;BME280;40764;48.472;8.166;2023-04-10T02:28:19;98679.84;;;4.19;81.70
54876;BME280;40764;48.472;8.166;2023-04-10T02:34:19;98676.47;;;4.12;81.50
54876;BME280;40764;48.472;8.166;2023-04-10T02:40:19;98683.78;;;4.28;81.14
54876;BME280;40764;48.472;8.166;2023-04-10T02:46:20;98664.03;;;4.27;81.01
54876;BME280;40764;48.472;8.166;2023-04-10T02:52:20;98677.56;;;4.27;80.79
54876;BME280;40764;48.472;8.166;2023-04-10T02:58:21;98662.47;;;4.31;80.58
54876;BME280;40764;48.472;8.166;2023-04-10T03:04:21;98660.97;;;4.24;80.33
54876;BME280;40764;48.472;8.166;2023-04-10T03:10:21;98656.78;;;4.16;80.97
54876;BME280;40764;48.472;8.166;2023-04-10T03:16:22;98654.41;;;4.20;80.38
54876;BME280;40764;48.472;8.166;2023-04-10T03:22:23;98647.84;;;4.16;80.99
54876;BME280;40764;48.472;8.166;2023-04-10T03:28:23;98635.78;;;4.07;81.35
54876;BME280;40764;48.472;8.166;2023-04-10T03:34:23;98628.88;;;3.99;81.07
54876;BME280;40764;48.472;8.166;2023-04-10T03:40:24;98621.31;;;4.01;81.56
54876;BME280;40764;48.472;8.166;2023-04-10T03:46:25;98614.81;;;4.14;81.39
54876;BME280;40764;48.472;8.166;2023-04-10T03:52:25;98610.56;;;4.18;80.17
54876;BME280;40764;48.472;8.166;2023-04-10T03:58:27;98608.44;;;3.91;81.75
54876;BME280;40764;48.472;8.166;2023-04-10T04:04:27;98612.41;;;4.00;80.47
54876;BME280;40764;48.472;8.166;2023-04-10T04:10:30;98618.50;;;4.08;79.47
54876;BME280;40764;48.472;8.166;2023-04-10T04:16:30;98622.34;;;4.12;78.83
54876;BME280;40764;48.472;8.166;2023-04-10T04:22:30;98630.03;;;4.03;78.76
54876;BME280;40764;48.472;8.166;2023-04-10T04:28:31;98629.34;;;3.96;78.26
54876;BME280;40764;48.472;8.166;2023-04-10T04:34:31;98627.94;;;4.05;79.31
54876;BME280;40764;48.472;8.166;2023-04-10T04:40:31;98628.75;;;4.06;78.34
54876;BME280;40764;48.472;8.166;2023-04-10T04:46:32;98637.22;;;3.97;79.02
54876;BME280;40764;48.472;8.166;2023-04-10T04:52:32;98631.72;;;3.92;78.75
54876;BME280;40764;48.472;8.166;2023-04-10T04:58:34;98629.03;;;3.92;78.41
54876;BME280;40764;48.472;8.166;2023-04-10T05:04:34;98634.28;;;3.99;78.47
54876;BME280;40764;48.472;8.166;2023-04-10T05:10:35;98636.22;;;4.32;76.67
54876;BME280;40764;48.472;8.166;2023-04-10T05:16:35;98640.28;;;4.46;74.94
54876;BME280;40764;48.472;8.166;2023-04-10T05:22:35;98645.47;;;4.64;73.48
54876;BME280;40764;48.472;8.166;2023-04-10T05:28:36;98639.03;;;4.54;73.84
54876;BME280;40764;48.472;8.166;2023-04-10T05:34:36;98653.81;;;4.46;75.24
54876;BME280;40764;48.472;8.166;2023-04-10T05:40:36;98652.66;;;4.42;75.85
54876;BME280;40764;48.472;8.166;2023-04-10T05:46:37;98643.56;;;4.48;76.26
54876;BME280;40764;48.472;8.166;2023-04-10T05:52:37;98634.53;;;4.76;75.14
54876;BME280;40764;48.472;8.166;2023-04-10T05:58:37;98639.25;;;5.03;73.86
54876;BME280;40764;48.472;8.166;2023-04-10T06:04:38;98643.44;;;5.10;74.00
54876;BME280;40764;48.472;8.166;2023-04-10T06:10:38;98638.44;;;5.41;72.93
54876;BME280;40764;48.472;8.166;2023-04-10T06:16:39;98648.09;;;5.75;70.83
54876;BME280;40764;48.472;8.166;2023-04-10T06:22:39;98638.63;;;6.00;70.31
54876;BME280;40764;48.472;8.166;2023-04-10T06:28:39;98633.41;;;6.20;70.05
54876;BME280;40764;48.472;8.166;2023-04-10T06:34:41;98629.97;;;6.62;68.38
54876;BME280;40764;48.472;8.166;2023-04-10T06:40:41;98633.28;;;7.01;64.99
54876;BME280;40764;48.472;8.166;2023-04-10T06:46:41;98624.00;;;7.39;62.93
54876;BME280;40764;48.472;8.166;2023-04-10T06:52:43;98620.06;;;7.77;61.51
54876;BME280;40764;48.472;8.166;2023-04-10T06:58:43;98613.41;;;8.30;59.03
54876;BME280;40764;48.472;8.166;2023-04-10T07:04:44;98606.38;;;8.80;56.83
54876;BME280;40764;48.472;8.166;2023-04-10T07:10:44;98604.56;;;9.50;51.21
54876;BME280;40764;48.472;8.166;2023-04-10T07:16:45;98595.22;;;9.67;52.51
54876;BME280;40764;48.472;8.166;2023-04-10T07:22:45;98588.78;;;10.02;51.99
54876;BME280;40764;48.472;8.166;2023-04-10T07:28:45;98590.28;;;10.28;48.37
54876;BME280;40764;48.472;8.166;2023-04-10T07:34:46;98599.25;;;10.68;48.29
54876;BME280;40764;48.472;8.166;2023-04-10T07:40:47;98596.00;;;10.95;48.46
54876;BME280;40764;48.472;8.166;2023-04-10T07:46:48;98598.84;;;11.13;47.38
54876;BME280;40764;48.472;8.166;2023-04-10T07:52:50;98595.69;;;11.25;47.02
54876;BME280;40764;48.472;8.166;2023-04-10T07:58:51;98591.63;;;11.46;46.80
54876;BME280;40764;48.472;8.166;2023-04-10T08:04:51;98592.97;;;11.73;42.70
54876;BME280;40764;48.472;8.166;2023-04-10T08:10:52;98588.06;;;11.94;42.27
54876;BME280;40764;48.472;8.166;2023-04-10T08:16:52;98588.06;;;12.13;41.58
54876;BME280;40764;48.472;8.166;2023-04-10T08:22:53;98587.19;;;12.36;40.45
54876;BME280;40764;48.472;8.166;2023-04-10T08:28:55;98588.72;;;12.61;41.26
54876;BME280;40764;48.472;8.166;2023-04-10T08:34:56;98580.06;;;12.86;40.85
54876;BME280;40764;48.472;8.166;2023-04-10T08:40:56;98583.38;;;13.16;39.89
54876;BME280;40764;48.472;8.166;2023-04-10T08:46:58;98588.81;;;13.21;38.08
54876;BME280;40764;48.472;8.166;2023-04-10T08:53:05;98588.44;;;13.69;38.51
54876;BME280;40764;48.472;8.166;2023-04-10T08:59:07;98578.84;;;13.80;37.25
54876;BME280;40764;48.472;8.166;2023-04-10T09:05:11;98584.91;;;14.04;37.26
54876;BME280;40764;48.472;8.166;2023-04-10T09:11:12;98574.59;;;14.23;38.14
54876;BME280;40764;48.472;8.166;2023-04-10T09:23:20;98554.66;;;14.76;37.15
54876;BME280;40764;48.472;8.166;2023-04-10T09:29:24;98550.03;;;14.94;36.54
54876;BME280;40764;48.472;8.166;2023-04-10T09:35:35;98532.06;;;14.97;36.52
54876;BME280;40764;48.472;8.166;2023-04-10T09:41:55;98530.88;;;15.11;36.50
54876;BME280;40764;48.472;8.166;2023-04-10T09:48:06;98523.03;;;15.36;38.59
54876;BME280;40764;48.472;8.166;2023-04-10T09:54:07;98522.91;;;15.49;37.36
54876;BME280;40764;48.472;8.166;2023-04-10T10:00:08;98512.69;;;15.50;35.51
54876;BME280;40764;48.472;8.166;2023-04-10T10:06:10;98504.19;;;15.69;35.52
54876;BME280;40764;48.472;8.166;2023-04-10T10:12:12;98488.97;;;15.89;34.52
54876;BME280;40764;48.472;8.166;2023-04-10T10:18:31;98479.25;;;16.08;33.52
54876;BME280;40764;48.472;8.166;2023-04-10T10:24:35;98474.84;;;16.42;32.75
54876;BME280;40764;48.472;8.166;2023-04-10T10:30:37;98470.13;;;16.68;33.10
54876;BME280;40764;48.472;8.166;2023-04-10T10:36:39;98467.09;;;16.99;31.76
54876;BME280;40764;48.472;8.166;2023-04-10T10:42:52;98458.59;;;17.13;30.36
54876;BME280;40764;48.472;8.166;2023-04-10T10:48:56;98443.31;;;17.45;32.21
54876;BME280;40764;48.472;8.166;2023-04-10T10:54:57;98442.16;;;17.46;29.88
54876;BME280;40764;48.472;8.166;2023-04-10T11:06:57;98429.03;;;17.93;29.35
54876;BME280;40764;48.472;8.166;2023-04-10T11:13:17;98421.34;;;18.32;28.25
54876;BME280;40764;48.472;8.166;2023-04-10T11:19:17;98420.69;;;18.47;29.10
54876;BME280;40764;48.472;8.166;2023-04-10T11:25:19;98413.22;;;18.60;29.12
54876;BME280;40764;48.472;8.166;2023-04-10T11:31:21;98397.53;;;18.52;26.93
54876;BME280;40764;48.472;8.166;2023-04-10T11:37:22;98384.31;;;18.70;27.58
54876;BME280;40764;48.472;8.166;2023-04-10T11:43:23;98393.44;;;19.07;28.50
54876;BME280;40764;48.472;8.166;2023-04-10T11:49:26;98402.34;;;19.12;27.48
54876;BME280;40764;48.472;8.166;2023-04-10T11:55:39;98395.53;;;19.10;26.49
54876;BME280;40764;48.472;8.166;2023-04-10T12:01:39;98376.94;;;18.98;27.19
54876;BME280;40764;48.472;8.166;2023-04-10T12:07:40;98374.75;;;19.16;26.69
54876;BME280;40764;48.472;8.166;2023-04-10T12:13:41;98366.69;;;19.11;26.99
54876;BME280;40764;48.472;8.166;2023-04-10T12:19:42;98364.72;;;19.11;33.48
54876;BME280;40764;48.472;8.166;2023-04-10T12:25:43;98357.19;;;18.63;38.09
54876;BME280;40764;48.472;8.166;2023-04-10T12:31:44;98356.56;;;18.45;37.93
54876;BME280;40764;48.472;8.166;2023-04-10T12:37:49;98350.22;;;18.45;37.42
54876;BME280;40764;48.472;8.166;2023-04-10T12:43:51;98357.66;;;18.65;37.18
54876;BME280;40764;48.472;8.166;2023-04-10T12:50:08;98347.09;;;18.46;37.68
54876;BME280;40764;48.472;8.166;2023-04-10T12:56:10;98353.50;;;18.71;37.44
54876;BME280;40764;48.472;8.166;2023-04-10T13:02:12;98354.91;;;19.02;37.22
54876;BME280;40764;48.472;8.166;2023-04-10T13:08:13;98348.00;;;18.83;37.60
54876;BME280;40764;48.472;8.166;2023-04-10T13:14:13;98334.59;;;18.85;37.68
54876;BME280;40764;48.472;8.166;2023-04-10T13:20:13;98338.75;;;19.16;37.31
54876;BME280;40764;48.472;8.166;2023-04-10T13:26:14;98317.09;;;19.34;36.69
54876;BME280;40764;48.472;8.166;2023-04-10T13:32:14;98309.53;;;19.06;36.43
54876;BME280;40764;48.472;8.166;2023-04-10T13:38:15;98308.78;;;19.46;35.80
54876;BME280;40764;48.472;8.166;2023-04-10T13:44:15;98300.38;;;19.30;35.93
54876;BME280;40764;48.472;8.166;2023-04-10T13:50:15;98297.19;;;19.16;36.09
54876;BME280;40764;48.472;8.166;2023-04-10T13:56:16;98290.78;;;19.28;36.34
54876;BME280;40764;48.472;8.166;2023-04-10T14:02:16;98281.59;;;19.52;36.20
54876;BME280;40764;48.472;8.166;2023-04-10T14:08:17;98286.56;;;19.18;36.27
54876;BME280;40764;48.472;8.166;2023-04-10T14:14:17;98268.41;;;19.21;34.95
54876;BME280;40764;48.472;8.166;2023-04-10T14:20:18;98271.94;;;19.33;34.38
54876;BME280;40764;48.472;8.166;2023-04-10T14:26:18;98266.91;;;19.23;34.99
54876;BME280;40764;48.472;8.166;2023-04-10T14:32:18;98255.84;;;19.51;34.66
54876;BME280;40764;48.472;8.166;2023-04-10T14:38:19;98254.47;;;19.57;33.55
54876;BME280;40764;48.472;8.166;2023-04-10T14:44:20;98249.19;;;19.96;34.10
54876;BME280;40764;48.472;8.166;2023-04-10T14:50:20;98248.66;;;19.62;33.81
54876;BME280;40764;48.472;8.166;2023-04-10T14:56:21;98232.19;;;19.54;32.14
54876;BME280;40764;48.472;8.166;2023-04-10T15:02:21;98238.69;;;19.33;30.51
54876;BME280;40764;48.472;8.166;2023-04-10T15:08:21;98214.88;;;19.04;30.75
54876;BME280;40764;48.472;8.166;2023-04-10T15:14:22;98225.91;;;18.88;30.78
54876;BME280;40764;48.472;8.166;2023-04-10T15:20:22;98219.47;;;18.72;30.11
54876;BME280;40764;48.472;8.166;2023-04-10T15:26:23;98213.69;;;18.53;30.33
54876;BME280;40764;48.472;8.166;2023-04-10T15:32:23;98212.31;;;18.35;31.21
54876;BME280;40764;48.472;8.166;2023-04-10T15:38:23;98203.31;;;18.13;31.96
54876;BME280;40764;48.472;8.166;2023-04-10T15:44:27;98195.94;;;17.93;32.25
54876;BME280;40764;48.472;8.166;2023-04-10T15:50:28;98191.28;;;17.85;31.97
54876;BME280;40764;48.472;8.166;2023-04-10T15:56:28;98189.19;;;17.70;32.84
54876;BME280;40764;48.472;8.166;2023-04-10T16:02:28;98180.81;;;17.57;33.78
54876;BME280;40764;48.472;8.166;2023-04-10T16:08:31;98170.25;;;17.59;33.63
54876;BME280;40764;48.472;8.166;2023-04-10T16:14:31;98173.41;;;17.70;33.61
54876;BME280;40764;48.472;8.166;2023-04-10T16:20:31;98167.88;;;17.70;33.57
54876;BME280;40764;48.472;8.166;2023-04-10T16:26:32;98162.50;;;17.53;33.96
54876;BME280;40764;48.472;8.166;2023-04-10T16:32:32;98160.94;;;17.64;33.89
54876;BME280;40764;48.472;8.166;2023-04-10T16:38:33;98154.56;;;17.51;34.82
54876;BME280;40764;48.472;8.166;2023-04-10T16:44:34;98156.38;;;17.35;35.04
54876;BME280;40764;48.472;8.166;2023-04-10T16:50:35;98165.19;;;17.28;35.74
54876;BME280;40764;48.472;8.166;2023-04-10T16:56:35;98154.19;;;17.08;36.52
54876;BME280;40764;48.472;8.166;2023-04-10T17:02:35;98149.97;;;16.89;37.40
54876;BME280;40764;48.472;8.166;2023-04-10T17:08:36;98134.88;;;16.66;39.40
54876;BME280;40764;48.472;8.166;2023-04-10T17:14:36;98136.97;;;16.48;39.89
54876;BME280;40764;48.472;8.166;2023-04-10T17:20:37;98147.94;;;16.27;40.89
54876;BME280;40764;48.472;8.166;2023-04-10T17:26:37;98133.25;;;16.15;41.39
54876;BME280;40764;48.472;8.166;2023-04-10T17:32:37;98141.78;;;16.01;41.91
54876;BME280;40764;48.472;8.166;2023-04-10T17:38:39;98133.09;;;15.90;42.69
54876;BME280;40764;48.472;8.166;2023-04-10T17:44:40;98125.22;;;15.71;44.35
54876;BME280;40764;48.472;8.166;2023-04-10T17:50:40;98107.09;;;15.53;44.90
54876;BME280;40764;48.472;8.166;2023-04-10T17:56:41;98102.56;;;15.48;45.08
54876;BME280;40764;48.472;8.166;2023-04-10T18:02:41;98074.75;;;15.41;46.62
54876;BME280;40764;48.472;8.166;2023-04-10T18:08:42;98054.03;;;15.27;46.99
54876;BME280;40764;48.472;8.166;2023-04-10T18:14:43;98054.03;;;15.27;47.52
54876;BME280;40764;48.472;8.166;2023-04-10T18:20:44;98104.25;;;15.24;47.80
54876;BME280;40764;48.472;8.166;2023-04-10T18:26:45;98118.03;;;15.24;47.99
54876;BME280;40764;48.472;8.166;2023-04-10T18:32:47;98124.69;;;15.14;48.02
54876;BME280;40764;48.472;8.166;2023-04-10T18:38:51;98150.47;;;15.09;47.96
54876;BME280;40764;48.472;8.166;2023-04-10T18:44:51;98145.75;;;15.01;48.47
54876;BME280;40764;48.472;8.166;2023-04-10T18:50:51;98133.16;;;14.92;48.69
54876;BME280;40764;48.472;8.166;2023-04-10T18:56:54;98123.78;;;14.84;48.72
54876;BME280;40764;48.472;8.166;2023-04-10T19:02:55;98147.25;;;14.81;48.99
54876;BME280;40764;48.472;8.166;2023-04-10T19:08:56;98159.03;;;14.65;50.46
54876;BME280;40764;48.472;8.166;2023-04-10T19:14:56;98158.22;;;14.47;51.11
54876;BME280;40764;48.472;8.166;2023-04-10T19:20:56;98160.78;;;14.43;51.32
54876;BME280;40764;48.472;8.166;2023-04-10T19:26:57;98164.63;;;14.25;52.44
54876;BME280;40764;48.472;8.166;2023-04-10T19:32:58;98170.22;;;14.11;53.12
54876;BME280;40764;48.472;8.166;2023-04-10T19:38:58;98179.59;;;14.02;54.08
54876;BME280;40764;48.472;8.166;2023-04-10T19:44:59;98174.25;;;13.97;53.97
54876;BME280;40764;48.472;8.166;2023-04-10T19:51:03;98192.84;;;14.00;53.22
54876;BME280;40764;48.472;8.166;2023-04-10T19:57:04;98191.50;;;13.88;53.74
54876;BME280;40764;48.472;8.166;2023-04-10T20:03:04;98184.88;;;13.89;54.06
54876;BME280;40764;48.472;8.166;2023-04-10T20:09:05;98150.56;;;13.78;54.94
54876;BME280;40764;48.472;8.166;2023-04-10T20:15:05;98164.13;;;13.75;55.49
54876;BME280;40764;48.472;8.166;2023-04-10T20:21:06;98162.16;;;13.67;56.57
54876;BME280;40764;48.472;8.166;2023-04-10T20:27:07;98164.91;;;13.36;60.00
54876;BME280;40764;48.472;8.166;2023-04-10T20:33:07;98139.50;;;13.08;63.40
54876;BME280;40764;48.472;8.166;2023-04-10T20:39:07;98151.97;;;13.14;63.15
54876;BME280;40764;48.472;8.166;2023-04-10T20:45:08;98136.56;;;12.59;70.88
54876;BME280;40764;48.472;8.166;2023-04-10T20:51:09;98119.56;;;12.35;75.36
54876;BME280;40764;48.472;8.166;2023-04-10T20:57:09;98100.81;;;12.28;75.42
54876;BME280;40764;48.472;8.166;2023-04-10T21:03:10;98104.84;;;12.45;73.38
54876;BME280;40764;48.472;8.166;2023-04-10T21:09:10;98090.75;;;12.60;70.32
54876;BME280;40764;48.472;8.166;2023-04-10T21:15:10;98095.63;;;12.63;69.65
54876;BME280;40764;48.472;8.166;2023-04-10T21:21:11;98121.38;;;12.39;72.38
54876;BME280;40764;48.472;8.166;2023-04-10T21:27:11;98119.13;;;12.41;72.18
54876;BME280;40764;48.472;8.166;2023-04-10T21:33:12;98100.31;;;12.26;75.01
54876;BME280;40764;48.472;8.166;2023-04-10T21:39:12;98110.97;;;12.28;75.38
54876;BME280;40764;48.472;8.166;2023-04-10T21:45:12;98086.25;;;12.41;73.51
54876;BME280;40764;48.472;8.166;2023-04-10T21:51:14;98073.88;;;12.44;71.60
54876;BME280;40764;48.472;8.166;2023-04-10T21:57:15;98065.69;;;12.30;73.97
54876;BME280;40764;48.472;8.166;2023-04-10T22:03:15;98068.88;;;12.46;71.35
54876;BME280;40764;48.472;8.166;2023-04-10T22:09:15;98061.91;;;12.62;69.41
54876;BME280;40764;48.472;8.166;2023-04-10T22:15:17;98033.50;;;12.89;65.94
54876;BME280;40764;48.472;8.166;2023-04-10T22:21:17;97989.88;;;13.10;64.70
54876;BME280;40764;48.472;8.166;2023-04-10T22:27:18;98007.81;;;13.16;63.45
54876;BME280;40764;48.472;8.166;2023-04-10T22:33:18;97986.25;;;13.23;63.13
54876;BME280;40764;48.472;8.166;2023-04-10T22:39:18;97966.38;;;13.18;63.56
54876;BME280;40764;48.472;8.166;2023-04-10T22:45:19;97960.59;;;13.28;62.50
54876;BME280;40764;48.472;8.166;2023-04-10T22:51:20;97935.44;;;13.35;60.90
54876;BME280;40764;48.472;8.166;2023-04-10T22:57:20;97956.94;;;13.50;59.08
54876;BME280;40764;48.472;8.166;2023-04-10T23:03:21;97973.59;;;13.62;58.96
54876;BME280;40764;48.472;8.166;2023-04-10T23:09:21;97956.44;;;13.56;59.32
54876;BME280;40764;48.472;8.166;2023-04-10T23:15:22;97960.53;;;13.59;58.76
54876;BME280;40764;48.472;8.166;2023-04-10T23:21:22;97972.00;;;13.61;58.87
54876;BME280;40764;48.472;8.166;2023-04-10T23:27:22;97966.78;;;13.51;59.85
54876;BME280;40764;48.472;8.166;2023-04-10T23:33:23;97950.19;;;13.64;58.52
54876;BME280;40764;48.472;8.166;2023-04-10T23:39:23;97941.13;;;13.73;57.48
54876;BME280;40764;48.472;8.166;2023-04-10T23:45:24;97923.53;;;13.91;56.30
54876;BME280;40764;48.472;8.166;2023-04-10T23:51:24;97918.38;;;13.89;56.37
54876;BME280;40764;48.472;8.166;2023-04-10T23:57:26;97916.09;;;13.91;56.40
